Portada
METAR-TAF:

METAR-TAF

Aeroports :

Omsk, Rússia

latitud: 54-58N, longitud: 073-18E, altitud: 122 m

Observació

L'informe es va fer fa 21 minuts, a les 01:30 UTC
Vent 12 kt del Nord-Est
Temperatura -12°C
Humitat 78%
Pressió 1028 hPa
Visibilitat 10 km o més
Núvols disperses a una alçada de 1400 ft
Cel ennuvolat a una alçada de 3300 ft, Cumulonimbus.

METAR: UNOO 140130Z 04006MPS 9999 SCT014 BKN033CB M12/M15 Q1028 R07/810545 NOSIG RMK QFE762

Hora: 07:51 (01:51 UTC)

Pronòstic

L'informe es va fer fa 3 hores i 1 minuts, a les 22:50 UTC
Pronòstic vàlid del 14 a les 00 UTC al 14 a les 24 UTC
Vent 10 kt del Nord-Est amb ràfegues de 23 kt
Visibilitat: 6000 m
Núvols disperses a una alçada de 3000 ft, Cumulonimbus.
Cel ennuvolat a una alçada de 3300 ft
Evolucionant progressivament
l' 14 a les 12 UTC al 14 a les 14 UTC
Vent 6 kt del Nord/Nord-Est amb ràfegues de 16 kt

TAF: UNOO 132250Z 1400/1424 05005G12MPS 6000 SCT030CB BKN033 BECMG 1412/1414 02003G08MPS

Observacions i pronòstics meteorològics de més de 4000 aeroports (METAR i TAF).

Les estacions disponibles són els punts grocs i vermells al mapa.

Posi el ratolí al punt desitjat per veure el nom de l'estació.

Feu clic per veure les observacions i els pronòstics meteorològics.

Per canviar el mapa: feu clic els botons verds amb una creu de color negre per apropar; al botó verd amb un guió per allunyar la imatge; o en les fletxes verdes per a mapes adjacents.


METAR-TAF: